createdAt,value
2022-10-24T00:01:11.307Z,1.87
2022-10-24T00:03:38.284Z,1.47
2022-10-24T00:06:07.473Z,1.20
2022-10-24T00:08:35.299Z,1.60
2022-10-24T00:11:01.987Z,1.37
2022-10-24T00:13:28.750Z,1.00
2022-10-24T00:15:55.298Z,1.10
2022-10-24T00:18:21.916Z,1.80
2022-10-24T00:20:48.512Z,1.80
2022-10-24T00:23:15.108Z,2.57
2022-10-24T00:25:41.782Z,1.10
2022-10-24T00:28:08.576Z,1.30
2022-10-24T00:30:35.188Z,1.40
2022-10-24T00:33:01.798Z,2.10
2022-10-24T00:35:28.533Z,1.73
2022-10-24T00:37:55.092Z,2.73
2022-10-24T00:40:21.701Z,2.80
2022-10-24T00:42:48.873Z,1.60
2022-10-24T00:45:47.902Z,2.10
2022-10-24T00:48:37.144Z,1.37
2022-10-24T00:51:18.682Z,2.00
2022-10-24T00:53:48.634Z,2.33
2022-10-24T00:56:17.568Z,2.80
2022-10-24T00:58:44.899Z,1.90
2022-10-24T01:01:12.591Z,3.17
2022-10-24T01:03:39.275Z,3.00
2022-10-24T01:06:37.163Z,3.90
2022-10-24T01:09:21.861Z,4.70
2022-10-24T01:11:51.157Z,5.70
2022-10-24T01:14:44.816Z,10.93
2022-10-24T01:17:52.801Z,6.97
2022-10-24T01:20:39.145Z,5.00
2022-10-24T01:23:26.892Z,5.00
2022-10-24T01:26:38.218Z,7.50
2022-10-24T01:29:17.072Z,7.30
2022-10-24T01:31:51.475Z,5.20
2022-10-24T01:34:25.480Z,7.13
2022-10-24T01:36:58.229Z,9.57
2022-10-24T01:39:27.387Z,7.57
2022-10-24T01:41:55.689Z,16.53
2022-10-24T01:44:30.239Z,8.50
2022-10-24T01:47:03.406Z,7.37
2022-10-24T01:49:33.938Z,8.63
2022-10-24T01:52:03.193Z,11.73
2022-10-24T01:54:30.954Z,4.93
2022-10-24T01:56:58.219Z,7.17
2022-10-24T01:59:28.405Z,5.37
2022-10-24T02:02:16.407Z,4.27
2022-10-24T02:04:49.996Z,5.57
2022-10-24T02:07:18.563Z,5.13
2022-10-24T02:09:47.816Z,6.37
2022-10-24T02:12:16.609Z,6.40
2022-10-24T02:14:49.905Z,4.87
2022-10-24T02:17:17.468Z,4.07
2022-10-24T02:19:45.203Z,4.87
2022-10-24T02:22:17.127Z,4.50
2022-10-24T02:25:01.919Z,3.60
2022-10-24T02:28:07.903Z,3.87
2022-10-24T02:30:39.714Z,5.27
2022-10-24T02:33:06.524Z,4.20
2022-10-24T02:35:35.980Z,2.50
2022-10-24T02:38:20.927Z,6.20
2022-10-24T02:40:48.169Z,4.17
2022-10-24T02:43:14.902Z,4.33
2022-10-24T02:45:41.537Z,3.47
2022-10-24T02:48:10.907Z,2.57
2022-10-24T02:50:39.825Z,5.53
2022-10-24T02:53:09.508Z,5.43
2022-10-24T02:55:36.282Z,1.80
2022-10-24T02:58:03.044Z,4.53
2022-10-24T03:00:29.652Z,5.93
2022-10-24T03:02:56.312Z,1.50
2022-10-24T03:05:22.944Z,2.73
2022-10-24T03:07:49.559Z,1.73
2022-10-24T03:10:16.276Z,1.70
2022-10-24T03:12:43.113Z,2.20
2022-10-24T03:15:10.357Z,1.60
2022-10-24T03:17:36.963Z,1.20
2022-10-24T03:20:04.031Z,2.13
2022-10-24T03:22:30.974Z,1.63
2022-10-24T03:25:01.689Z,4.77
2022-10-24T03:27:28.267Z,10.20
2022-10-24T03:29:54.888Z,4.07
2022-10-24T03:32:21.607Z,6.43
2022-10-24T03:34:48.251Z,4.20
2022-10-24T03:37:14.882Z,2.33
2022-10-24T03:39:41.476Z,1.77
2022-10-24T03:42:08.007Z,1.13
2022-10-24T03:44:34.632Z,1.47
2022-10-24T03:47:01.237Z,2.03
2022-10-24T03:49:27.867Z,5.00
2022-10-24T03:51:54.431Z,8.30
2022-10-24T03:54:20.980Z,1.53
2022-10-24T03:56:50.335Z,3.23
2022-10-24T03:59:16.988Z,2.77
2022-10-24T04:01:43.838Z,4.83
2022-10-24T04:04:10.484Z,2.90
2022-10-24T04:06:37.178Z,2.60
2022-10-24T04:09:04.426Z,6.20
2022-10-24T04:11:31.178Z,2.23
2022-10-24T04:13:57.864Z,4.07
2022-10-24T04:16:24.531Z,6.30
2022-10-24T04:18:51.424Z,5.83
2022-10-24T04:21:21.753Z,3.47
2022-10-24T04:23:48.559Z,6.30
2022-10-24T04:26:16.043Z,8.30
2022-10-24T04:28:42.714Z,6.47
2022-10-24T04:31:09.544Z,5.07
2022-10-24T04:33:36.406Z,5.67
2022-10-24T04:36:03.428Z,4.87
2022-10-24T04:38:33.343Z,4.47
2022-10-24T04:41:00.431Z,9.10
2022-10-24T04:43:27.082Z,3.97
2022-10-24T04:45:53.679Z,4.27
2022-10-24T04:48:20.268Z,11.67
2022-10-24T04:50:47.651Z,8.43
2022-10-24T04:53:14.341Z,5.77
2022-10-24T04:55:40.961Z,11.40
2022-10-24T04:58:07.526Z,7.83
2022-10-24T05:00:34.138Z,9.43
2022-10-24T05:03:00.679Z,9.30
2022-10-24T05:05:27.343Z,10.23
2022-10-24T05:07:53.941Z,16.13
2022-10-24T05:10:20.515Z,14.73
2022-10-24T05:12:47.313Z,6.10
2022-10-24T05:15:18.591Z,9.70
2022-10-24T05:17:45.131Z,4.23
2022-10-24T05:20:11.934Z,6.93
2022-10-24T05:22:38.612Z,4.20
2022-10-24T05:25:05.811Z,4.17
2022-10-24T05:27:32.440Z,8.97
2022-10-24T05:29:59.277Z,3.83
2022-10-24T05:32:25.887Z,4.67
2022-10-24T05:34:52.459Z,7.67
2022-10-24T05:37:19.102Z,3.30
2022-10-24T05:39:45.790Z,3.87
2022-10-24T05:42:12.435Z,9.67
2022-10-24T05:44:39.413Z,6.90
2022-10-24T05:47:06.225Z,7.23
2022-10-24T05:49:32.909Z,6.17
2022-10-24T05:51:59.514Z,8.50
2022-10-24T05:54:33.252Z,7.50
2022-10-24T05:57:09.279Z,6.67
2022-10-24T05:59:35.882Z,10.03
2022-10-24T06:02:02.642Z,10.03
2022-10-24T06:04:29.274Z,14.83
2022-10-24T06:06:55.863Z,7.07
2022-10-24T06:09:22.447Z,10.20
2022-10-24T06:11:49.043Z,11.50
2022-10-24T06:14:16.891Z,13.97
2022-10-24T06:16:43.469Z,8.63
2022-10-24T06:19:10.099Z,9.83
2022-10-24T06:21:36.713Z,11.13
2022-10-24T06:24:03.370Z,15.87
2022-10-24T06:26:29.943Z,8.13
2022-10-24T06:28:56.556Z,10.20
2022-10-24T06:31:23.266Z,8.00
2022-10-24T06:33:50.313Z,6.93
2022-10-24T06:36:21.244Z,5.50
